createdAt,value
2022-12-27T00:02:03.491Z,99908.44
2022-12-27T00:04:30.609Z,99900.91
2022-12-27T00:06:57.539Z,99905.97
2022-12-27T00:09:24.568Z,99912.97
2022-12-27T00:11:56.347Z,99906.75
2022-12-27T00:14:27.211Z,99894.72
2022-12-27T00:16:54.094Z,99897.84
2022-12-27T00:19:23.824Z,99895.84
2022-12-27T00:21:50.848Z,99899.84
2022-12-27T00:24:17.866Z,99894.78
2022-12-27T00:26:44.687Z,99902.25
2022-12-27T00:29:11.690Z,99899.69
2022-12-27T00:31:38.572Z,99910.22
2022-12-27T00:34:07.631Z,99910.38
2022-12-27T00:36:35.271Z,99917.28
2022-12-27T00:39:02.709Z,99920.88
2022-12-27T00:41:30.108Z,99921.88
2022-12-27T00:43:56.985Z,99912.44
2022-12-27T00:46:23.971Z,99919.44
2022-12-27T00:48:50.847Z,99927.22
2022-12-27T00:51:21.378Z,99939.38
2022-12-27T00:53:49.675Z,99934.34
2022-12-27T00:56:20.339Z,99935.25
2022-12-27T00:58:47.479Z,99931.75
2022-12-27T01:01:17.545Z,99922.25
2022-12-27T01:03:44.891Z,99926.97
2022-12-27T01:06:15.247Z,99921.69
2022-12-27T01:08:43.260Z,99918.75
2022-12-27T01:11:11.527Z,99924.34
2022-12-27T01:13:39.560Z,99929.69
2022-12-27T01:16:21.827Z,99932.13
2022-12-27T01:18:49.230Z,99924.00
2022-12-27T01:21:19.916Z,99926.16
2022-12-27T01:23:49.556Z,99922.41
2022-12-27T01:26:21.624Z,99927.06
2022-12-27T01:28:50.029Z,99922.09
2022-12-27T01:31:25.078Z,99917.47
2022-12-27T01:34:00.000Z,99912.38
2022-12-27T01:36:31.394Z,99916.84
2022-12-27T01:38:59.184Z,99914.28
2022-12-27T01:41:51.226Z,99912.16
2022-12-27T01:44:40.293Z,99908.47
2022-12-27T01:47:36.029Z,99904.69
2022-12-27T01:50:24.642Z,99901.69
2022-12-27T01:53:07.029Z,99904.66
2022-12-27T01:55:39.825Z,99892.69
2022-12-27T01:58:13.456Z,99896.44
2022-12-27T02:03:37.716Z,99893.13
2022-12-27T02:06:07.038Z,99895.97
2022-12-27T02:08:55.716Z,99903.91
2022-12-27T02:11:46.941Z,99892.59
2022-12-27T02:14:16.884Z,99892.69
2022-12-27T02:16:43.914Z,99893.53
2022-12-27T02:19:32.224Z,99887.41
2022-12-27T02:22:53.135Z,99899.63
2022-12-27T02:25:48.550Z,99897.16
2022-12-27T02:28:33.734Z,99900.66
2022-12-27T02:31:08.949Z,99897.22
2022-12-27T02:33:45.555Z,99892.09
2022-12-27T02:36:15.387Z,99885.09
2022-12-27T02:38:48.715Z,99890.38
2022-12-27T02:41:34.472Z,99890.34
2022-12-27T02:44:19.904Z,99889.50
2022-12-27T02:47:06.839Z,99893.00
2022-12-27T02:49:59.590Z,99891.31
2022-12-27T02:53:05.641Z,99884.50
2022-12-27T02:56:09.609Z,99875.69
2022-12-27T02:59:05.418Z,99884.44
2022-12-27T03:01:50.763Z,99886.25
2022-12-27T03:04:41.639Z,99881.97
2022-12-27T03:07:25.205Z,99876.78
2022-12-27T03:10:33.448Z,99885.56
2022-12-27T03:13:28.047Z,99878.59
2022-12-27T03:16:23.753Z,99890.81
2022-12-27T03:19:08.878Z,99877.56
2022-12-27T03:22:16.562Z,99883.72
2022-12-27T03:25:02.309Z,99883.84
2022-12-27T03:27:37.129Z,99885.59
2022-12-27T03:30:27.704Z,99889.03
2022-12-27T03:33:16.533Z,99878.69
2022-12-27T03:36:10.588Z,99880.44
2022-12-27T03:38:48.168Z,99877.78
2022-12-27T03:41:42.192Z,99887.44
2022-12-27T03:44:24.710Z,99880.34
2022-12-27T03:46:59.716Z,99877.75
2022-12-27T03:49:34.827Z,99885.53
2022-12-27T03:52:15.003Z,99884.66
2022-12-27T03:54:45.668Z,99876.06
2022-12-27T03:57:17.367Z,99877.81
2022-12-27T03:59:45.077Z,99865.56
2022-12-27T04:02:12.160Z,99872.56
2022-12-27T04:04:39.480Z,99868.19
2022-12-27T04:07:06.756Z,99870.63
2022-12-27T04:09:52.190Z,99868.09
2022-12-27T04:12:37.898Z,99869.84
2022-12-27T04:15:23.367Z,99862.00
2022-12-27T04:18:11.404Z,99866.44
2022-12-27T04:20:58.085Z,99866.53
2022-12-27T04:23:43.474Z,99865.59
2022-12-27T04:26:29.264Z,99860.38
2022-12-27T04:29:14.910Z,99862.00
2022-12-27T04:32:00.412Z,99873.28
2022-12-27T04:34:45.453Z,99872.38
2022-12-27T04:37:18.901Z,99868.69
2022-12-27T04:40:10.008Z,99876.66
2022-12-27T04:42:57.669Z,99873.28
2022-12-27T04:45:43.156Z,99882.69
2022-12-27T04:48:33.379Z,99884.38
2022-12-27T04:51:19.692Z,99888.63
2022-12-27T04:54:05.495Z,99884.16
2022-12-27T04:56:32.496Z,99880.72
2022-12-27T04:59:18.020Z,99875.69
2022-12-27T05:02:03.917Z,99877.31
2022-12-27T05:04:37.301Z,99888.53
2022-12-27T05:07:26.597Z,99883.41
2022-12-27T05:10:12.457Z,99886.00
2022-12-27T05:12:57.697Z,99875.47
2022-12-27T05:15:24.824Z,99895.41
2022-12-27T05:18:01.292Z,99884.25
2022-12-27T05:20:28.287Z,99890.38
2022-12-27T05:23:13.888Z,99892.03
2022-12-27T05:25:45.984Z,99897.28
2022-12-27T05:28:13.665Z,99894.75
2022-12-27T05:30:43.240Z,99907.00
2022-12-27T05:33:10.416Z,99898.50
2022-12-27T05:35:37.778Z,99894.22
2022-12-27T05:38:05.448Z,99899.41
2022-12-27T05:40:33.399Z,99897.81
2022-12-27T05:43:01.731Z,99910.88
2022-12-27T05:45:29.953Z,99894.44
2022-12-27T05:47:58.790Z,99902.28
2022-12-27T05:50:26.166Z,99907.66
2022-12-27T05:52:52.996Z,99907.66
2022-12-27T05:55:20.144Z,99905.09
2022-12-27T05:57:47.074Z,99899.03
2022-12-27T06:00:14.510Z,99904.09
2022-12-27T06:02:42.779Z,99904.31
2022-12-27T06:05:10.885Z,99897.44
2022-12-27T06:07:39.068Z,99903.53
2022-12-27T06:10:07.974Z,99906.25
2022-12-27T06:12:35.485Z,99904.50
2022-12-27T06:15:02.948Z,99910.69
2022-12-27T06:17:29.939Z,99904.72
2022-12-27T06:19:57.425Z,99921.19
2022-12-27T06:22:24.816Z,99924.53
2022-12-27T06:24:52.350Z,99927.13
2022-12-27T06:27:19.469Z,99930.69
2022-12-27T06:29:47.354Z,99940.16
2022-12-27T06:32:16.351Z,99940.19
2022-12-27T06:34:43.381Z,99937.66
2022-12-27T06:37:10.469Z,99988.63
2022-12-27T06:39:37.559Z,99979.91
2022-12-27T06:42:04.488Z,99978.06
2022-12-27T06:44:31.341Z,99992.81
2022-12-27T06:46:58.336Z,100003.97
2022-12-27T06:49:26.042Z,99999.50
2022-12-27T06:51:59.273Z,100004.69
2022-12-27T06:54:26.945Z,100001.31
2022-12-27T06:56:53.870Z,99996.06
2022-12-27T06:59:20.752Z,99991.78
2022-12-27T07:01:47.814Z,100000.66
2022-12-27T07:04:15.328Z,99994.44
2022-12-27T07:06:42.289Z,100005.84
2022-12-27T07:09:09.309Z,100009.34
2022-12-27T07:11:37.823Z,100021.47
2022-12-27T07:14:06.229Z,100027.75
2022-12-27T07:16:33.259Z,100035.47
2022-12-27T07:19:09.058Z,100050.22
2022-12-27T07:21:37.117Z,100046.88
2022-12-27T07:24:04.173Z,100050.34
2022-12-27T07:26:31.240Z,100045.22
2022-12-27T07:29:00.539Z,100056.44
2022-12-27T07:31:30.222Z,100047.47
2022-12-27T07:33:58.522Z,100044.25
2022-12-27T07:36:29.955Z,100058.19
2022-12-27T07:38:56.981Z,100058.31
2022-12-27T07:41:24.993Z,100061.94
2022-12-27T07:43:53.464Z,100070.63
2022-12-27T07:46:22.822Z,100073.13
2022-12-27T07:48:50.077Z,100079.16
2022-12-27T07:51:18.227Z,100088.75
2022-12-27T07:53:45.806Z,100100.09
2022-12-27T07:56:25.406Z,100093.31
2022-12-27T07:58:54.188Z,100076.16
2022-12-27T08:01:23.498Z,100082.25
2022-12-27T08:03:51.162Z,100087.91
2022-12-27T08:06:35.956Z,100091.41
2022-12-27T08:09:06.269Z,100114.84
2022-12-27T08:11:34.804Z,100119.31
2022-12-27T08:14:01.938Z,100121.91
2022-12-27T08:16:28.940Z,100129.59
2022-12-27T08:18:56.467Z,100143.47
2022-12-27T08:21:24.367Z,100139.91
2022-12-27T08:23:51.810Z,100140.09
2022-12-27T08:26:21.503Z,100152.19
2022-12-27T08:28:48.776Z,100159.72
2022-12-27T08:31:15.812Z,100166.53
2022-12-27T08:33:42.996Z,100162.81
2022-12-27T08:36:52.940Z,100171.41
2022-12-27T08:39:00.344Z,100160.94
2022-12-27T08:41:29.128Z,100175.97
2022-12-27T08:43:56.281Z,100176.66
2022-12-27T08:46:23.421Z,100173.28
2022-12-27T08:48:51.841Z,100165.63
2022-12-27T08:51:32.655Z,100167.38
2022-12-27T08:54:06.252Z,100165.81
2022-12-27T08:56:33.860Z,100172.94
2022-12-27T08:59:00.943Z,100170.41
2022-12-27T09:01:28.552Z,100187.41
2022-12-27T09:03:56.241Z,100195.94
2022-12-27T09:06:24.839Z,100189.63
2022-12-27T09:08:54.256Z,100194.44
2022-12-27T09:11:26.584Z,100189.13
2022-12-27T09:13:53.984Z,100183.78
2022-12-27T09:16:25.952Z,100190.88
2022-12-27T09:18:55.035Z,100194.31
2022-12-27T09:21:25.589Z,100186.53
2022-12-27T09:23:52.800Z,100183.66
2022-12-27T09:26:23.654Z,100188.34
2022-12-27T09:28:51.192Z,100182.28
2022-12-27T09:31:19.492Z,100182.88
2022-12-27T09:33:46.652Z,100185.22
2022-12-27T09:36:19.878Z,100193.34
2022-12-27T09:38:47.634Z,100195.16
2022-12-27T09:42:25.933Z,100202.16
2022-12-27T09:44:21.518Z,100194.53
2022-12-27T09:47:17.550Z,100204.19
2022-12-27T09:49:52.860Z,100205.97
2022-12-27T09:52:42.274Z,100203.34
2022-12-27T09:55:36.880Z,100195.63
2022-12-27T09:58:22.761Z,100193.16
2022-12-27T10:00:53.096Z,100201.78
2022-12-27T10:03:27.331Z,100180.25
2022-12-27T10:06:39.085Z,100185.50
2022-12-27T10:09:41.301Z,100194.97
2022-12-27T10:12:27.985Z,100194.78
2022-12-27T10:15:18.488Z,100193.88
2022-12-27T10:18:13.332Z,100189.63
2022-12-27T10:20:55.088Z,100188.75
2022-12-27T10:23:34.065Z,100190.44
2022-12-27T10:26:13.202Z,100188.75
2022-12-27T10:28:44.657Z,100183.56
2022-12-27T10:31:21.561Z,100192.31
2022-12-27T10:33:50.585Z,100192.22
2022-12-27T10:36:23.271Z,100185.38
2022-12-27T10:38:50.343Z,100186.19
2022-12-27T10:41:41.776Z,100179.78
2022-12-27T10:44:12.251Z,100177.19
2022-12-27T10:46:42.087Z,100179.16
2022-12-27T10:49:29.174Z,100175.03
2022-12-27T10:51:58.909Z,100181.28
2022-12-27T10:54:29.506Z,100179.91
2022-12-27T10:57:17.094Z,100173.22
2022-12-27T10:59:44.156Z,100179.44
2022-12-27T11:02:19.940Z,100174.25
2022-12-27T11:05:01.315Z,100172.72
2022-12-27T11:07:33.136Z,100164.19
2022-12-27T11:10:08.743Z,100161.53
2022-12-27T11:12:37.234Z,100153.09
2022-12-27T11:15:11.889Z,100150.75
2022-12-27T11:17:41.029Z,100148.91
2022-12-27T11:20:22.310Z,100157.06
2022-12-27T11:23:03.229Z,100153.56
2022-12-27T11:25:31.750Z,100155.19
2022-12-27T11:28:19.509Z,100155.31
2022-12-27T11:30:57.816Z,100163.50
2022-12-27T11:33:31.173Z,100161.94
2022-12-27T11:36:00.783Z,100155.63
2022-12-27T11:38:31.574Z,100166.03
2022-12-27T11:41:04.760Z,100153.41
2022-12-27T11:43:37.794Z,100157.06
2022-12-27T11:46:14.087Z,100147.59
2022-12-27T11:48:45.760Z,100147.66
2022-12-27T11:51:40.173Z,100150.13
2022-12-27T11:54:23.682Z,100156.59
2022-12-27T11:57:18.815Z,100155.63
2022-12-27T12:00:18.857Z,100158.38
2022-12-27T12:03:39.208Z,100158.63
2022-12-27T12:06:34.715Z,100150.03
2022-12-27T12:09:38.866Z,100147.28
2022-12-27T12:12:47.677Z,100152.66
2022-12-27T12:15:42.464Z,100136.22
2022-12-27T12:18:51.155Z,100139.00
2022-12-27T12:21:44.142Z,100142.19
2022-12-27T12:24:43.088Z,100143.25
2022-12-27T12:27:38.630Z,100145.88
2022-12-27T12:30:34.423Z,100151.41
2022-12-27T12:33:07.132Z,100151.13
2022-12-27T12:36:20.283Z,100147.38
2022-12-27T12:39:04.974Z,100153.88
2022-12-27T12:41:56.043Z,100148.56
2022-12-27T12:44:50.680Z,100158.94
2022-12-27T12:47:35.435Z,100170.22
2022-12-27T12:50:21.848Z,100170.19
2022-12-27T12:53:10.726Z,100181.53
2022-12-27T12:56:08.642Z,100178.09
2022-12-27T12:58:55.680Z,100181.72
2022-12-27T13:01:45.144Z,100167.94
2022-12-27T13:04:29.034Z,100171.81
2022-12-27T13:07:47.713Z,100182.09
2022-12-27T13:10:34.687Z,100179.09
2022-12-27T13:13:14.617Z,100176.53
2022-12-27T13:16:07.687Z,100173.72
2022-12-27T13:19:19.411Z,100174.41
2022-12-27T13:22:26.029Z,100169.94
2022-12-27T13:25:17.394Z,100171.56
2022-12-27T13:28:02.328Z,100188.84
2022-12-27T13:31:04.806Z,100195.56
2022-12-27T13:33:50.267Z,100200.63
2022-12-27T13:36:43.539Z,100210.19
2022-12-27T13:39:38.023Z,100198.09
2022-12-27T13:42:42.344Z,100205.78
2022-12-27T13:45:34.152Z,100204.00
2022-12-27T13:48:19.064Z,100202.38
2022-12-27T13:51:07.452Z,100206.41
2022-12-27T13:53:44.073Z,100206.47
2022-12-27T13:56:52.106Z,100210.56
2022-12-27T13:59:30.704Z,100207.91
2022-12-27T14:02:30.535Z,100215.50
2022-12-27T14:05:16.164Z,100225.88
2022-12-27T14:07:53.820Z,100224.63
2022-12-27T14:10:22.354Z,100229.94
2022-12-27T14:13:03.288Z,100228.75
2022-12-27T14:15:55.175Z,100234.94
2022-12-27T14:18:48.433Z,100248.13
2022-12-27T14:21:37.091Z,100252.41
2022-12-27T14:24:40.416Z,100268.75
2022-12-27T14:27:30.754Z,100268.59
2022-12-27T14:30:23.652Z,100283.06
2022-12-27T14:33:09.510Z,100274.38
2022-12-27T14:35:54.786Z,100253.59
2022-12-27T14:38:37.098Z,100259.63
2022-12-27T14:41:44.031Z,100253.94
2022-12-27T14:44:44.270Z,100271.25
2022-12-27T14:47:23.852Z,100265.28
2022-12-27T14:50:02.822Z,100274.88
2022-12-27T14:53:14.997Z,100276.66
2022-12-27T14:56:23.088Z,100272.06
2022-12-27T14:59:49.521Z,100286.66
2022-12-27T15:02:16.901Z,100295.34
2022-12-27T15:05:08.194Z,100302.28
2022-12-27T15:08:08.225Z,100297.88
2022-12-27T15:10:56.740Z,100312.50
2022-12-27T15:13:46.636Z,100316.72
2022-12-27T15:16:52.113Z,100316.63
2022-12-27T15:19:34.733Z,100319.63
2022-12-27T15:22:27.978Z,100320.06
2022-12-27T15:25:37.355Z,100330.38
2022-12-27T15:28:36.754Z,100339.88
2022-12-27T15:31:28.939Z,100337.09
2022-12-27T15:34:15.772Z,100337.28
2022-12-27T15:36:49.006Z,100345.91
2022-12-27T15:39:34.346Z,100352.16
2022-12-27T15:42:39.628Z,100341.59
2022-12-27T15:45:11.775Z,100341.50
2022-12-27T15:48:30.079Z,100344.25
2022-12-27T15:51:16.293Z,100341.41
2022-12-27T15:54:14.289Z,100357.38
2022-12-27T15:56:52.984Z,100361.94
2022-12-27T15:59:35.111Z,100346.97
2022-12-27T16:02:25.267Z,100353.94
2022-12-27T16:04:57.331Z,100364.31
2022-12-27T16:07:51.307Z,100357.44
2022-12-27T16:10:50.620Z,100358.03
2022-12-27T16:13:41.765Z,100345.75
2022-12-27T16:16:32.976Z,100365.91
2022-12-27T16:19:15.240Z,100359.59
2022-12-27T16:21:45.653Z,100355.44
2022-12-27T16:24:25.254Z,100356.06
2022-12-27T16:27:06.123Z,100366.69
2022-12-27T16:29:40.720Z,100363.00
2022-12-27T16:32:25.382Z,100370.84
2022-12-27T16:34:58.612Z,100365.16
2022-12-27T16:37:38.990Z,100374.50
2022-12-27T16:40:21.739Z,100387.31
2022-12-27T16:42:58.105Z,100383.69
2022-12-27T16:45:34.465Z,100387.06
2022-12-27T16:48:25.274Z,100391.09
2022-12-27T16:51:14.688Z,100392.13
2022-12-27T16:54:07.411Z,100388.38
2022-12-27T16:56:43.272Z,100383.31
2022-12-27T16:59:54.703Z,100391.72
2022-12-27T17:02:40.418Z,100395.34
2022-12-27T17:05:17.119Z,100408.25
2022-12-27T17:08:11.191Z,100416.81
2022-12-27T17:10:59.972Z,100426.25
2022-12-27T17:13:54.985Z,100424.06
2022-12-27T17:16:42.112Z,100445.78
2022-12-27T17:19:35.626Z,100449.31
2022-12-27T17:22:06.832Z,100448.25
2022-12-27T17:24:35.786Z,100451.78
2022-12-27T17:27:40.153Z,100455.25
2022-12-27T17:30:18.179Z,100467.09
2022-12-27T17:33:07.401Z,100470.38
2022-12-27T17:35:46.220Z,100474.72
2022-12-27T17:38:31.452Z,100465.88
2022-12-27T17:41:13.605Z,100465.22
2022-12-27T17:44:36.322Z,100471.91
2022-12-27T17:47:43.769Z,100477.72
2022-12-27T17:50:18.167Z,100482.25
2022-12-27T17:53:33.722Z,100486.56
2022-12-27T17:56:30.008Z,100485.34
2022-12-27T17:59:15.623Z,100484.53
2022-12-27T18:01:47.882Z,100498.06
2022-12-27T18:04:29.508Z,100499.72
2022-12-27T18:07:02.812Z,100493.69
2022-12-27T18:09:50.424Z,100501.38
2022-12-27T18:12:26.850Z,100495.19
2022-12-27T18:14:59.843Z,100504.78
2022-12-27T18:17:58.488Z,100503.66
2022-12-27T18:20:28.960Z,100501.78
2022-12-27T18:23:01.906Z,100508.31
2022-12-27T18:25:44.896Z,100509.81
2022-12-27T18:28:30.477Z,100511.44
2022-12-27T18:31:22.686Z,100516.34
2022-12-27T18:33:56.977Z,100514.78
2022-12-27T18:36:35.973Z,100508.69
2022-12-27T18:39:09.030Z,100507.88
2022-12-27T18:41:46.844Z,100502.28
2022-12-27T18:44:26.525Z,100497.41
2022-12-27T18:47:01.065Z,100486.50
2022-12-27T18:49:32.240Z,100458.69
2022-12-27T18:52:00.368Z,100457.88
2022-12-27T18:54:29.859Z,100458.59
2022-12-27T18:56:58.544Z,100476.56
2022-12-27T18:59:29.355Z,100486.84
2022-12-27T19:01:58.871Z,100490.06
2022-12-27T19:04:31.293Z,100497.06
2022-12-27T19:07:01.512Z,100486.53
2022-12-27T19:09:35.907Z,100494.47
2022-12-27T19:12:06.631Z,100499.41
2022-12-27T19:14:43.373Z,100495.63
2022-12-27T19:17:23.523Z,100503.75
2022-12-27T19:19:55.388Z,100508.88
2022-12-27T19:22:43.439Z,100494.22
2022-12-27T19:25:32.290Z,100499.69
2022-12-27T19:28:11.066Z,100497.38
2022-12-27T19:30:44.405Z,100485.50
2022-12-27T19:33:28.023Z,100487.34
2022-12-27T19:35:56.022Z,100485.28
2022-12-27T19:38:28.977Z,100496.91
2022-12-27T19:41:03.947Z,100507.84
2022-12-27T19:43:38.375Z,100500.44
2022-12-27T19:46:06.003Z,100517.22
2022-12-27T19:48:32.962Z,100514.06
2022-12-27T19:51:00.025Z,100516.00
2022-12-27T19:53:34.910Z,100527.50
2022-12-27T19:56:03.060Z,100531.84
2022-12-27T19:58:30.918Z,100539.72
2022-12-27T20:00:58.663Z,100537.34
2022-12-27T20:03:26.258Z,100537.53
2022-12-27T20:06:13.526Z,100548.75
2022-12-27T20:08:48.321Z,100552.75
2022-12-27T20:11:18.796Z,100551.69
2022-12-27T20:13:46.102Z,100560.63
2022-12-27T20:16:14.772Z,100567.56
2022-12-27T20:18:42.888Z,100569.13
2022-12-27T20:21:18.598Z,100566.53
2022-12-27T20:23:46.059Z,100566.50
2022-12-27T20:26:19.441Z,100570.09
2022-12-27T20:28:47.226Z,100564.94
2022-12-27T20:31:16.071Z,100571.22
2022-12-27T20:33:44.476Z,100567.88
2022-12-27T20:36:12.560Z,100561.84
2022-12-27T20:38:40.046Z,100555.03
2022-12-27T20:41:13.022Z,100555.06
2022-12-27T20:43:40.094Z,100566.13
2022-12-27T20:46:09.057Z,100572.34
2022-12-27T20:48:40.833Z,100578.22
2022-12-27T20:51:11.091Z,100572.00
2022-12-27T20:53:38.028Z,100579.75
2022-12-27T20:56:06.535Z,100583.78
2022-12-27T20:58:34.148Z,100583.53
2022-12-27T21:01:26.947Z,100590.97
2022-12-27T21:03:57.701Z,100592.47
2022-12-27T21:06:28.280Z,100598.69
2022-12-27T21:08:57.628Z,100604.72
2022-12-27T21:11:31.923Z,100591.66
2022-12-27T21:14:01.019Z,100600.38
2022-12-27T21:16:30.691Z,100605.41
2022-12-27T21:18:58.073Z,100611.34
2022-12-27T21:21:28.940Z,100609.44
2022-12-27T21:23:57.236Z,100613.47
2022-12-27T21:26:27.792Z,100617.44
2022-12-27T21:28:55.574Z,100618.91
2022-12-27T21:31:23.239Z,100625.38
2022-12-27T21:33:50.562Z,100636.34
2022-12-27T21:36:23.211Z,100621.34
2022-12-27T21:38:53.037Z,100639.31
2022-12-27T21:41:22.444Z,100632.34
2022-12-27T21:43:50.177Z,100631.53
2022-12-27T21:46:43.873Z,100638.13
2022-12-27T21:49:13.423Z,100647.56
2022-12-27T21:51:42.005Z,100642.34
2022-12-27T21:54:10.815Z,100639.59
2022-12-27T21:56:39.474Z,100645.06
2022-12-27T21:59:11.175Z,100649.06
2022-12-27T22:01:50.655Z,100648.63
2022-12-27T22:04:19.473Z,100636.16
2022-12-27T22:06:47.434Z,100642.25
2022-12-27T22:09:15.163Z,100644.75
2022-12-27T22:11:42.287Z,100640.53
2022-12-27T22:14:09.247Z,100652.16
2022-12-27T22:16:38.365Z,100652.97
2022-12-27T22:19:08.324Z,100652.44
2022-12-27T22:21:36.760Z,100641.81
2022-12-27T22:24:04.331Z,100641.75
2022-12-27T22:26:39.945Z,100643.56
2022-12-27T22:29:07.986Z,100643.31
2022-12-27T22:31:37.941Z,100640.88
2022-12-27T22:34:07.917Z,100645.75
2022-12-27T22:36:34.906Z,100643.78
2022-12-27T22:39:02.330Z,100646.50
2022-12-27T22:41:31.428Z,100643.78
2022-12-27T22:44:03.877Z,100643.91
2022-12-27T22:46:58.603Z,100637.72
2022-12-27T22:49:18.908Z,100635.28
2022-12-27T22:51:45.947Z,100638.81
2022-12-27T22:54:12.746Z,100642.72
2022-12-27T22:56:42.173Z,100640.00
2022-12-27T22:59:18.993Z,100636.44
2022-12-27T23:01:48.757Z,100637.53
2022-12-27T23:04:15.733Z,100639.81
2022-12-27T23:06:43.010Z,100632.25
2022-12-27T23:09:10.643Z,100644.59
2022-12-27T23:11:40.856Z,100631.72
2022-12-27T23:14:14.850Z,100631.53
2022-12-27T23:16:44.147Z,100632.00
2022-12-27T23:19:13.933Z,100637.44
2022-12-27T23:21:41.293Z,100640.13
2022-12-27T23:24:09.126Z,100632.00
2022-12-27T23:26:36.437Z,100632.81
2022-12-27T23:29:04.022Z,100636.50
2022-12-27T23:31:31.464Z,100640.03
2022-12-27T23:33:59.173Z,100634.50
2022-12-27T23:36:26.263Z,100642.25
2022-12-27T23:38:53.208Z,100646.53
2022-12-27T23:41:23.119Z,100641.31
2022-12-27T23:43:53.743Z,100640.00
2022-12-27T23:46:24.987Z,100637.69
2022-12-27T23:48:52.147Z,100634.50
2022-12-27T23:51:20.198Z,100630.97
2022-12-27T23:53:48.104Z,100642.47
2022-12-27T23:56:19.194Z,100636.91
2022-12-27T23:58:47.202Z,100644.38
